createdAt,value
2022-10-23T00:00:37.557Z,93.82
2022-10-23T00:01:37.401Z,93.40
2022-10-23T00:02:37.464Z,93.10
2022-10-23T00:03:37.381Z,92.89
2022-10-23T00:04:37.372Z,93.51
2022-10-23T00:05:37.389Z,94.23
2022-10-23T00:06:37.413Z,94.33
2022-10-23T00:07:37.336Z,93.46
2022-10-23T00:08:37.327Z,92.64
2022-10-23T00:09:37.313Z,91.61
2022-10-23T00:10:37.313Z,94.23
2022-10-23T00:11:37.290Z,93.82
2022-10-23T00:12:37.374Z,94.02
2022-10-23T00:13:37.269Z,94.02
2022-10-23T00:14:37.263Z,93.92
2022-10-23T00:15:37.260Z,94.02
2022-10-23T00:16:37.349Z,93.92
2022-10-23T00:17:37.229Z,92.54
2022-10-23T00:18:37.275Z,93.05
2022-10-23T00:19:37.203Z,91.93
2022-10-23T00:20:37.195Z,92.07
2022-10-23T00:21:37.204Z,93.26
2022-10-23T00:22:37.193Z,93.87
2022-10-23T00:23:37.161Z,92.07
2022-10-23T00:24:37.219Z,92.23
2022-10-23T00:25:37.138Z,93.16
2022-10-23T00:26:37.135Z,94.29
2022-10-23T00:27:37.117Z,93.98
2022-10-23T00:28:37.118Z,94.80
2022-10-23T00:29:37.096Z,93.20
2022-10-23T00:30:37.143Z,93.36
2022-10-23T00:31:37.074Z,92.64
2022-10-23T00:32:37.081Z,93.77
2022-10-23T00:33:37.054Z,95.05
2022-10-23T00:34:37.053Z,94.54
2022-10-23T00:35:37.032Z,94.95
2022-10-23T00:36:37.110Z,92.79
2022-10-23T00:37:37.032Z,92.58
2022-10-23T00:38:36.998Z,92.64
2022-10-23T00:39:36.999Z,92.85
2022-10-23T00:40:37.024Z,92.64
2022-10-23T00:41:36.966Z,92.64
2022-10-23T00:42:37.018Z,92.19
2022-10-23T00:43:36.955Z,92.85
2022-10-23T00:44:36.935Z,90.69
2022-10-23T00:45:36.923Z,93.05
2022-10-23T00:46:36.914Z,93.77
2022-10-23T00:47:36.912Z,93.26
2022-10-23T00:48:36.968Z,92.85
2022-10-23T00:49:40.636Z,93.16
2022-10-23T00:50:37.870Z,92.95
2022-10-23T00:51:36.931Z,92.54
2022-10-23T00:52:36.849Z,92.95
2022-10-23T00:53:36.866Z,93.98
2022-10-23T00:54:36.875Z,94.08
2022-10-23T00:55:36.816Z,94.59
2022-10-23T00:56:36.804Z,94.39
2022-10-23T00:57:36.822Z,94.08
2022-10-23T00:58:36.783Z,92.95
2022-10-23T00:59:36.828Z,92.60
2022-10-23T01:00:36.761Z,93.83
2022-10-23T01:01:36.896Z,93.52
2022-10-23T01:02:36.825Z,93.16
2022-10-23T01:03:36.726Z,91.67
2022-10-23T01:04:36.719Z,91.88
2022-10-23T01:05:36.810Z,90.95
2022-10-23T01:06:36.697Z,91.16
2022-10-23T01:07:36.698Z,91.88
2022-10-23T01:08:36.674Z,92.55
2022-10-23T01:09:36.685Z,92.76
2022-10-23T01:10:36.654Z,93.07
2022-10-23T01:11:36.696Z,92.55
2022-10-23T01:12:36.633Z,91.94
2022-10-23T01:13:36.631Z,91.53
2022-10-23T01:14:36.622Z,90.91
2022-10-23T01:15:36.598Z,92.25
2022-10-23T01:16:36.591Z,91.80
2022-10-23T01:17:39.583Z,91.90
2022-10-23T01:18:37.586Z,92.97
2022-10-23T01:19:36.558Z,92.51
2022-10-23T01:20:36.548Z,92.93
2022-10-23T01:21:36.537Z,92.41
2022-10-23T01:22:36.528Z,91.69
2022-10-23T01:23:36.573Z,92.51
2022-10-23T01:24:36.514Z,93.54
2022-10-23T01:25:36.515Z,93.02
2022-10-23T01:26:36.480Z,92.72
2022-10-23T01:27:36.474Z,91.49
2022-10-23T01:28:36.459Z,92.72
2022-10-23T01:29:36.518Z,91.75
2022-10-23T01:30:36.515Z,93.02
2022-10-23T01:31:36.429Z,92.72
2022-10-23T01:32:36.417Z,90.77
2022-10-23T01:33:36.409Z,90.97
2022-10-23T01:34:36.410Z,91.86
2022-10-23T01:35:36.445Z,91.08
2022-10-23T01:36:36.374Z,89.95
2022-10-23T01:37:36.365Z,89.33
2022-10-23T01:38:36.365Z,92.68
2022-10-23T01:39:36.345Z,92.88
2022-10-23T01:40:36.331Z,92.57
2022-10-23T01:41:36.375Z,94.01
2022-10-23T01:42:36.323Z,94.15
2022-10-23T01:43:36.301Z,94.15
2022-10-23T01:44:36.303Z,92.47
2022-10-23T01:45:36.281Z,90.77
2022-10-23T01:46:36.269Z,91.03
2022-10-23T01:47:36.320Z,91.90
2022-10-23T01:48:36.259Z,91.86
2022-10-23T01:49:36.242Z,90.62
2022-10-23T01:50:36.238Z,90.11
2022-10-23T01:51:36.223Z,90.73
2022-10-23T01:52:36.215Z,90.22
2022-10-23T01:53:36.263Z,89.81
2022-10-23T01:54:36.195Z,90.11
2022-10-23T01:55:36.245Z,90.46
2022-10-23T01:56:36.165Z,89.90
2022-10-23T01:57:36.175Z,90.52
2022-10-23T01:58:36.154Z,91.90
2022-10-23T01:59:36.204Z,92.10
2022-10-23T02:00:36.164Z,91.84
2022-10-23T02:01:36.273Z,92.93
2022-10-23T02:02:36.236Z,93.85
2022-10-23T02:03:36.094Z,93.95
2022-10-23T02:04:36.077Z,93.74
2022-10-23T02:05:36.100Z,90.56
2022-10-23T02:06:36.064Z,90.46
2022-10-23T02:07:36.052Z,89.81
2022-10-23T02:08:36.036Z,89.75
2022-10-23T02:09:36.029Z,90.42
2022-10-23T02:10:36.026Z,90.52
2022-10-23T02:11:36.042Z,90.52
2022-10-23T02:12:35.997Z,90.22
2022-10-23T02:13:36.005Z,89.60
2022-10-23T02:14:35.978Z,89.90
2022-10-23T02:15:35.991Z,89.29
2022-10-23T02:16:35.966Z,89.29
2022-10-23T02:17:36.023Z,90.52
2022-10-23T02:18:35.934Z,91.35
2022-10-23T02:19:35.926Z,90.73
2022-10-23T02:20:35.975Z,89.39
2022-10-23T02:21:35.922Z,90.52
2022-10-23T02:22:35.889Z,90.89
2022-10-23T02:23:35.961Z,90.83
2022-10-23T02:24:35.872Z,92.47
2022-10-23T02:25:35.863Z,92.36
2022-10-23T02:26:35.882Z,89.81
2022-10-23T02:27:35.849Z,89.60
2022-10-23T02:28:35.825Z,89.70
2022-10-23T02:29:35.876Z,90.58
2022-10-23T02:30:35.805Z,90.93
2022-10-23T02:31:35.808Z,92.68
2022-10-23T02:32:35.784Z,91.24
2022-10-23T02:33:35.777Z,90.46
2022-10-23T02:34:35.878Z,91.75
2022-10-23T02:35:35.799Z,91.03
2022-10-23T02:36:35.740Z,89.39
2022-10-23T02:37:35.734Z,89.19
2022-10-23T02:38:35.721Z,89.19
2022-10-23T02:39:35.712Z,89.81
2022-10-23T02:40:35.778Z,89.90
2022-10-23T02:41:35.692Z,89.87
2022-10-23T02:42:35.678Z,91.35
2022-10-23T02:43:35.669Z,91.96
2022-10-23T02:44:35.657Z,90.73
2022-10-23T02:45:35.739Z,91.35
2022-10-23T02:46:35.690Z,90.77
2022-10-23T02:47:35.640Z,90.22
2022-10-23T02:48:35.614Z,90.01
2022-10-23T02:49:35.606Z,90.62
2022-10-23T02:50:35.591Z,90.11
2022-10-23T02:51:35.594Z,89.39
2022-10-23T02:52:35.619Z,88.88
2022-10-23T02:53:35.560Z,89.39
2022-10-23T02:54:35.547Z,89.09
2022-10-23T02:55:35.537Z,89.19
2022-10-23T02:56:37.956Z,88.98
2022-10-23T02:57:35.518Z,88.62
2022-10-23T02:58:35.543Z,89.29
2022-10-23T02:59:35.496Z,89.19
2022-10-23T03:00:35.483Z,88.88
2022-10-23T03:01:35.576Z,88.92
2022-10-23T03:02:35.462Z,89.19
2022-10-23T03:03:35.556Z,89.95
2022-10-23T03:04:35.464Z,90.67
2022-10-23T03:05:35.430Z,90.16
2022-10-23T03:06:35.422Z,90.05
2022-10-23T03:07:35.409Z,90.56
2022-10-23T03:08:35.395Z,90.46
2022-10-23T03:09:35.399Z,91.28
2022-10-23T03:10:35.489Z,92.27
2022-10-23T03:11:35.365Z,90.67
2022-10-23T03:12:35.350Z,90.83
2022-10-23T03:13:35.341Z,90.62
2022-10-23T03:14:35.339Z,90.32
2022-10-23T03:15:35.321Z,90.11
2022-10-23T03:16:35.396Z,89.97
2022-10-23T03:17:35.319Z,89.87
2022-10-23T03:18:35.301Z,89.70
2022-10-23T03:19:35.278Z,89.87
2022-10-23T03:20:35.385Z,90.17
2022-10-23T03:21:35.268Z,91.30
2022-10-23T03:22:35.323Z,90.52
2022-10-23T03:23:35.234Z,92.06
2022-10-23T03:24:35.224Z,92.93
2022-10-23T03:25:35.210Z,93.64
2022-10-23T03:26:35.214Z,92.41
2022-10-23T03:27:35.194Z,91.35
2022-10-23T03:28:35.234Z,90.42
2022-10-23T03:29:35.181Z,90.32
2022-10-23T03:30:35.158Z,90.52
2022-10-23T03:31:35.148Z,91.91
2022-10-23T03:32:35.150Z,91.71
2022-10-23T03:33:35.177Z,90.69
2022-10-23T03:34:35.171Z,91.71
2022-10-23T03:35:35.163Z,91.82
2022-10-23T03:36:35.094Z,90.89
2022-10-23T03:37:35.081Z,89.70
2022-10-23T03:38:35.074Z,90.73
2022-10-23T03:39:35.079Z,90.52
2022-10-23T03:40:35.104Z,91.20
2022-10-23T03:41:35.040Z,91.55
2022-10-23T03:42:35.030Z,91.96
2022-10-23T03:43:35.035Z,91.86
2022-10-23T03:44:35.011Z,90.79
2022-10-23T03:45:34.996Z,90.69
2022-10-23T03:46:35.052Z,90.73
2022-10-23T03:47:34.974Z,90.89
2022-10-23T03:48:34.965Z,90.79
2022-10-23T03:49:34.986Z,91.35
2022-10-23T03:50:34.944Z,90.89
2022-10-23T03:51:34.930Z,90.42
2022-10-23T03:52:34.980Z,90.89
2022-10-23T03:53:34.912Z,90.48
2022-10-23T03:54:34.907Z,90.79
2022-10-23T03:55:34.900Z,90.58
2022-10-23T03:56:34.878Z,90.52
2022-10-23T03:57:34.926Z,89.87
2022-10-23T03:58:34.872Z,90.28
2022-10-23T03:59:34.858Z,89.76
2022-10-23T04:00:34.906Z,89.66
2022-10-23T04:01:35.060Z,89.76
2022-10-23T04:02:34.882Z,91.61
2022-10-23T04:03:34.883Z,90.99
2022-10-23T04:04:34.792Z,90.69
2022-10-23T04:05:34.799Z,90.93
2022-10-23T04:06:34.855Z,90.58
2022-10-23T04:07:34.758Z,90.48
2022-10-23T04:08:34.749Z,90.17
2022-10-23T04:09:34.739Z,89.90
2022-10-23T04:10:34.726Z,90.93
2022-10-23T04:11:34.761Z,91.40
2022-10-23T04:12:34.714Z,90.28
2022-10-23T04:13:34.691Z,92.12
2022-10-23T04:14:34.684Z,90.93
2022-10-23T04:15:34.687Z,92.32
2022-10-23T04:16:34.662Z,92.53
2022-10-23T04:17:34.762Z,92.32
2022-10-23T04:18:34.640Z,92.98
2022-10-23T04:19:34.627Z,93.66
2022-10-23T04:20:34.618Z,90.89
2022-10-23T04:21:34.638Z,90.37
2022-10-23T04:22:34.595Z,90.07
2022-10-23T04:23:34.702Z,90.89
2022-10-23T04:24:34.574Z,90.58
2022-10-23T04:25:34.600Z,90.79
2022-10-23T04:26:34.554Z,89.56
2022-10-23T04:27:34.555Z,90.17
2022-10-23T04:28:34.531Z,90.69
2022-10-23T04:29:34.544Z,90.89
2022-10-23T04:30:34.509Z,91.20
2022-10-23T04:31:34.496Z,90.17
2022-10-23T04:32:34.499Z,90.73
2022-10-23T04:33:34.474Z,90.62
2022-10-23T04:34:34.463Z,89.76
2022-10-23T04:35:34.499Z,90.07
2022-10-23T04:36:34.447Z,89.81
2022-10-23T04:37:34.467Z,90.93
2022-10-23T04:38:34.420Z,90.89
2022-10-23T04:39:34.408Z,91.55
2022-10-23T04:40:34.399Z,90.79
2022-10-23T04:41:34.429Z,91.44
2022-10-23T04:42:34.379Z,91.55
2022-10-23T04:43:34.376Z,90.77
2022-10-23T04:44:34.353Z,90.93
2022-10-23T04:45:34.340Z,90.22
2022-10-23T04:46:34.332Z,90.52
2022-10-23T04:47:34.413Z,89.81
2022-10-23T04:48:34.310Z,89.15
2022-10-23T04:49:34.298Z,90.93
2022-10-23T04:50:34.327Z,89.15
2022-10-23T04:51:34.274Z,89.76
2022-10-23T04:52:34.307Z,89.60
2022-10-23T04:53:34.340Z,90.48
2022-10-23T04:54:34.243Z,89.15
2022-10-23T04:55:34.231Z,89.45
2022-10-23T04:56:34.233Z,89.87
2022-10-23T04:57:34.208Z,89.87
2022-10-23T04:58:34.200Z,89.76
2022-10-23T04:59:34.255Z,90.28
2022-10-23T05:00:34.292Z,90.07
2022-10-23T05:01:34.266Z,89.66
2022-10-23T05:02:34.167Z,90.69
2022-10-23T05:03:34.141Z,90.58
2022-10-23T05:04:34.134Z,88.94
2022-10-23T05:05:34.199Z,89.15
2022-10-23T05:06:34.119Z,90.17
2022-10-23T05:07:34.098Z,90.17
2022-10-23T05:08:34.090Z,89.87
2022-10-23T05:09:34.094Z,89.15
2022-10-23T05:10:34.065Z,89.87
2022-10-23T05:11:34.136Z,90.07
2022-10-23T05:12:34.044Z,90.07
2022-10-23T05:13:34.030Z,89.87
2022-10-23T05:14:34.022Z,90.22
2022-10-23T05:15:34.061Z,90.69
2022-10-23T05:16:34.002Z,89.15
2022-10-23T05:17:34.082Z,88.29
2022-10-23T05:18:33.977Z,89.04
2022-10-23T05:19:33.971Z,89.45
2022-10-23T05:20:33.953Z,90.73
2022-10-23T05:21:33.941Z,91.20
2022-10-23T05:22:33.931Z,91.50
2022-10-23T05:23:34.008Z,91.61
2022-10-23T05:24:33.910Z,91.96
2022-10-23T05:25:33.919Z,91.75
2022-10-23T05:26:33.888Z,91.75
2022-10-23T05:27:33.874Z,90.89
2022-10-23T05:28:33.870Z,90.48
2022-10-23T05:29:33.927Z,89.87
2022-10-23T05:30:33.848Z,89.45
2022-10-23T05:31:33.831Z,89.42
2022-10-23T05:32:33.940Z,89.72
2022-10-23T05:33:33.809Z,90.64
2022-10-23T05:34:33.799Z,90.17
2022-10-23T05:35:33.864Z,90.23
2022-10-23T05:36:33.776Z,90.44
2022-10-23T05:37:33.764Z,90.64
2022-10-23T05:38:33.853Z,89.62
2022-10-23T05:39:33.749Z,89.51
2022-10-23T05:40:33.778Z,90.03
2022-10-23T05:41:33.737Z,91.26
2022-10-23T05:42:35.214Z,90.75
2022-10-23T05:43:33.749Z,90.75
2022-10-23T05:44:33.711Z,90.44
2022-10-23T05:45:33.679Z,90.03
2022-10-23T05:46:33.664Z,89.47
2022-10-23T05:47:33.652Z,90.23
2022-10-23T05:48:35.361Z,90.75
2022-10-23T05:49:33.706Z,90.34
2022-10-23T05:50:33.633Z,91.46
2022-10-23T05:51:33.606Z,90.91
2022-10-23T05:52:33.597Z,90.44
2022-10-23T05:53:36.113Z,90.54
2022-10-23T05:54:34.575Z,90.81
2022-10-23T05:55:33.628Z,90.34
2022-10-23T05:56:33.557Z,89.58
2022-10-23T05:57:33.573Z,90.60
2022-10-23T05:58:33.549Z,90.54
2022-10-23T05:59:33.519Z,91.05
2022-10-23T06:00:33.507Z,90.95
2022-10-23T06:01:33.627Z,90.75
2022-10-23T06:02:33.537Z,90.60
2022-10-23T06:03:33.472Z,89.72
2022-10-23T06:04:33.463Z,91.26
2022-10-23T06:05:33.481Z,89.47
2022-10-23T06:06:33.442Z,90.03
2022-10-23T06:07:35.748Z,89.89
2022-10-23T06:08:33.433Z,89.78
2022-10-23T06:09:33.407Z,90.03
2022-10-23T06:10:33.397Z,90.44
2022-10-23T06:11:33.384Z,90.03
2022-10-23T06:12:33.375Z,90.60
2022-10-23T06:13:33.421Z,90.44
2022-10-23T06:14:33.361Z,90.30
2022-10-23T06:15:33.340Z,91.46
2022-10-23T06:16:33.334Z,91.16
2022-10-23T06:17:33.317Z,90.30
2022-10-23T06:18:33.308Z,90.44
2022-10-23T06:19:33.372Z,89.17
2022-10-23T06:20:33.305Z,89.68
2022-10-23T06:21:33.274Z,89.74
2022-10-23T06:22:33.264Z,89.94
2022-10-23T06:23:33.252Z,91.42
2022-10-23T06:24:33.242Z,90.81
2022-10-23T06:25:33.389Z,89.37
2022-10-23T06:26:33.221Z,89.12
2022-10-23T06:27:33.207Z,89.43
2022-10-23T06:28:33.197Z,90.00
2022-10-23T06:29:33.204Z,90.00
2022-10-23T06:30:33.229Z,89.09
2022-10-23T06:31:33.235Z,90.00
2022-10-23T06:32:33.153Z,89.18
2022-10-23T06:33:33.142Z,89.70
2022-10-23T06:34:33.134Z,89.25
2022-10-23T06:35:33.228Z,89.18
2022-10-23T06:36:33.108Z,89.29
2022-10-23T06:37:33.170Z,90.27
2022-10-23T06:38:33.088Z,88.64
2022-10-23T06:39:33.073Z,89.04
2022-10-23T06:40:33.067Z,89.04
2022-10-23T06:41:33.068Z,90.37
2022-10-23T06:42:33.157Z,90.47
2022-10-23T06:43:33.028Z,90.12
2022-10-23T06:44:33.082Z,90.64
2022-10-23T06:45:33.029Z,89.51
2022-10-23T06:46:33.000Z,89.72
2022-10-23T06:47:33.000Z,89.31
2022-10-23T06:48:32.974Z,90.12
2022-10-23T06:49:32.961Z,90.74
2022-10-23T06:50:33.003Z,91.05
2022-10-23T06:51:32.940Z,89.41
2022-10-23T06:52:46.450Z,89.51
2022-10-23T06:53:33.917Z,89.92
2022-10-23T06:54:32.908Z,90.27
2022-10-23T06:55:32.918Z,91.46
2022-10-23T06:56:32.975Z,92.27
2022-10-23T06:57:32.885Z,92.07
2022-10-23T06:58:32.866Z,92.07
2022-10-23T06:59:32.852Z,92.54
2022-10-23T07:00:32.920Z,93.29
2022-10-23T07:01:33.077Z,93.40
2022-10-23T07:02:32.884Z,93.80
2022-10-23T07:03:32.821Z,94.17
2022-10-23T07:04:32.813Z,94.27
2022-10-23T07:05:32.785Z,92.74
2022-10-23T07:06:32.775Z,92.23
2022-10-23T07:07:32.761Z,92.64
2022-10-23T07:08:32.813Z,93.86
2022-10-23T07:09:32.752Z,93.25
2022-10-23T07:10:32.848Z,92.08
2022-10-23T07:11:32.721Z,91.82
2022-10-23T07:12:32.712Z,91.67
2022-10-23T07:13:32.696Z,91.47
2022-10-23T07:14:32.749Z,90.66
2022-10-23T07:15:32.686Z,90.25
2022-10-23T07:16:32.668Z,89.23
2022-10-23T07:17:32.673Z,89.63
2022-10-23T07:18:32.645Z,89.94
2022-10-23T07:19:32.637Z,89.32
2022-10-23T07:20:32.711Z,89.18
2022-10-23T07:21:32.619Z,89.69
2022-10-23T07:22:32.599Z,89.39
2022-10-23T07:23:32.587Z,89.90
2022-10-23T07:24:32.579Z,89.69
2022-10-23T07:25:32.570Z,88.98
2022-10-23T07:26:32.637Z,89.18
2022-10-23T07:27:32.544Z,89.04
2022-10-23T07:28:32.536Z,89.04
2022-10-23T07:29:32.521Z,89.34
2022-10-23T07:30:32.513Z,88.73
2022-10-23T07:31:32.523Z,87.77
2022-10-23T07:32:32.629Z,86.04
2022-10-23T07:33:32.507Z,85.02
2022-10-23T07:34:32.471Z,85.90
2022-10-23T07:35:34.432Z,85.69
2022-10-23T07:36:32.465Z,86.00
2022-10-23T07:37:32.436Z,85.05
2022-10-23T07:38:32.495Z,84.12
2022-10-23T07:39:32.427Z,85.66
2022-10-23T07:40:32.403Z,86.98
2022-10-23T07:41:32.394Z,85.66
2022-10-23T07:42:32.380Z,84.09
2022-10-23T07:44:32.410Z,81.93
2022-10-23T07:45:32.354Z,83.32
2022-10-23T07:46:32.338Z,81.64
2022-10-23T07:47:32.332Z,78.49
2022-10-23T07:48:32.316Z,73.73
2022-10-23T07:49:32.340Z,73.69
2022-10-23T07:50:32.294Z,79.20
2022-10-23T07:51:32.287Z,79.50
2022-10-23T07:52:35.802Z,77.82
2022-10-23T07:53:32.274Z,79.54
2022-10-23T07:54:32.262Z,80.45
2022-10-23T07:55:32.260Z,80.49
2022-10-23T07:56:32.231Z,81.48
2022-10-23T07:57:32.266Z,82.09
2022-10-23T07:58:32.207Z,81.57
2022-10-23T07:59:35.846Z,81.12
2022-10-23T08:00:33.277Z,79.26
2022-10-23T08:01:32.416Z,77.95
2022-10-23T08:02:32.188Z,79.13
2022-10-23T08:03:32.160Z,77.91
2022-10-23T08:04:32.152Z,80.07
2022-10-23T08:05:32.162Z,79.16
2022-10-23T08:06:32.118Z,80.15
2022-10-23T08:07:32.110Z,80.49
2022-10-23T08:08:32.100Z,80.36
2022-10-23T08:09:32.091Z,80.30
2022-10-23T08:10:32.087Z,77.29
2022-10-23T08:11:32.071Z,81.15
2022-10-23T08:12:32.065Z,78.30
2022-10-23T08:13:32.046Z,79.25
2022-10-23T08:14:32.033Z,80.54
2022-10-23T08:15:32.030Z,82.47
2022-10-23T08:16:32.031Z,80.32
2022-10-23T08:17:32.005Z,76.53
2022-10-23T08:18:31.995Z,73.66
2022-10-23T08:19:31.980Z,72.38
2022-10-23T08:20:31.970Z,72.61
2022-10-23T08:21:31.979Z,72.48
2022-10-23T08:22:31.969Z,72.48
2022-10-23T08:23:31.939Z,71.70
2022-10-23T08:24:31.935Z,72.64
2022-10-23T08:26:31.909Z,74.53
2022-10-23T08:27:31.895Z,75.24
2022-10-23T08:28:31.895Z,72.24
2022-10-23T08:29:31.884Z,71.91
2022-10-23T08:30:31.863Z,75.45
2022-10-23T08:31:31.859Z,76.23
2022-10-23T08:32:31.840Z,77.81
2022-10-23T08:33:31.833Z,77.71
2022-10-23T08:34:31.831Z,76.43
2022-10-23T08:35:31.810Z,77.64
2022-10-23T08:36:31.838Z,77.00
2022-10-23T08:37:31.804Z,76.23
2022-10-23T08:38:31.793Z,76.43
2022-10-23T08:39:31.773Z,77.84
2022-10-23T08:40:31.763Z,77.24
2022-10-23T08:41:31.748Z,75.31
2022-10-23T08:42:31.770Z,75.92
2022-10-23T08:43:31.723Z,73.80
2022-10-23T08:44:31.839Z,72.48
2022-10-23T08:45:31.701Z,72.31
2022-10-23T08:46:31.717Z,71.80
2022-10-23T08:47:31.683Z,72.14
2022-10-23T08:48:31.726Z,74.37
2022-10-23T08:49:31.661Z,75.49
2022-10-23T08:50:31.702Z,76.80
2022-10-23T08:51:31.641Z,76.40
2022-10-23T08:52:31.670Z,78.83
2022-10-23T08:53:31.639Z,78.93
2022-10-23T08:54:31.661Z,81.40
2022-10-23T08:55:31.594Z,80.29
2022-10-23T08:56:31.615Z,76.33
2022-10-23T08:57:31.573Z,78.77
2022-10-23T08:58:31.618Z,77.45
2022-10-23T08:59:31.563Z,79.38
2022-10-23T09:00:31.560Z,81.13
2022-10-23T09:01:31.676Z,79.96
2022-10-23T09:02:31.555Z,80.10
2022-10-23T09:03:31.508Z,81.31
2022-10-23T09:04:31.563Z,82.59
2022-10-23T09:05:31.504Z,82.33
2022-10-23T09:06:31.499Z,78.94
2022-10-23T09:07:31.466Z,82.80
2022-10-23T09:08:31.522Z,82.80
2022-10-23T09:09:31.464Z,81.21
2022-10-23T09:10:31.481Z,80.64
2022-10-23T09:11:31.422Z,81.09
2022-10-23T09:12:31.445Z,82.31
2022-10-23T09:13:31.413Z,82.57
2022-10-23T09:14:31.409Z,83.65
2022-10-23T09:15:31.382Z,80.64
2022-10-23T09:16:31.400Z,78.71
2022-10-23T09:17:31.367Z,78.51
2022-10-23T09:18:31.393Z,78.61
2022-10-23T09:19:31.445Z,81.66
2022-10-23T09:20:31.363Z,83.48
2022-10-23T09:21:31.324Z,82.26
2022-10-23T09:22:31.343Z,84.40
2022-10-23T09:23:31.296Z,82.64
2022-10-23T09:24:31.322Z,83.10
2022-10-23T09:25:31.302Z,81.48
2022-10-23T09:26:31.281Z,81.18
2022-10-23T09:27:31.257Z,82.90
2022-10-23T09:28:31.289Z,83.10
2022-10-23T09:29:31.232Z,81.48
2022-10-23T09:30:31.246Z,81.13
2022-10-23T09:31:31.287Z,81.04
2022-10-23T09:32:31.226Z,78.80
2022-10-23T09:33:31.183Z,78.46
2022-10-23T09:34:31.231Z,77.95
2022-10-23T09:35:31.161Z,77.65
2022-10-23T09:36:31.218Z,76.33
2022-10-23T09:37:31.151Z,76.47
2022-10-23T09:38:31.174Z,75.82
2022-10-23T09:39:31.118Z,75.01
2022-10-23T09:40:31.158Z,76.03
2022-10-23T09:41:31.117Z,77.25
2022-10-23T09:42:31.115Z,75.93
2022-10-23T09:43:31.087Z,77.14
2022-10-23T09:44:31.118Z,75.73
2022-10-23T09:45:31.055Z,77.14
2022-10-23T09:46:31.079Z,77.04
2022-10-23T09:47:31.034Z,77.95
2022-10-23T09:48:31.069Z,77.89
2022-10-23T09:49:31.023Z,79.00
2022-10-23T09:50:31.034Z,78.40
2022-10-23T09:51:30.989Z,76.78
2022-10-23T09:52:31.001Z,80.39
2022-10-23T09:53:30.968Z,82.45
2022-10-23T09:54:31.006Z,82.66
2022-10-23T09:55:30.955Z,83.63
2022-10-23T09:56:30.993Z,84.95
2022-10-23T09:57:30.948Z,85.46
2022-10-23T09:58:30.931Z,86.94
2022-10-23T09:59:30.903Z,85.42
2022-10-23T10:00:30.979Z,86.13
2022-10-23T10:01:31.004Z,85.48
2022-10-23T10:02:30.870Z,83.55
2022-10-23T10:03:30.860Z,82.10
2022-10-23T10:04:30.849Z,79.06
2022-10-23T10:05:30.840Z,76.23
2022-10-23T10:06:31.063Z,76.93
2022-10-23T10:07:33.390Z,75.55
2022-10-23T10:08:31.810Z,74.81
2022-10-23T10:09:30.797Z,74.51
2022-10-23T10:10:30.786Z,76.12
2022-10-23T10:11:30.778Z,80.38
2022-10-23T10:12:30.774Z,79.97
2022-10-23T10:13:30.771Z,80.01
2022-10-23T10:14:30.809Z,79.87
2022-10-23T10:15:30.733Z,81.52
2022-10-23T10:16:30.788Z,81.32
2022-10-23T10:17:30.712Z,81.32
2022-10-23T10:18:30.700Z,78.69
2022-10-23T10:19:30.695Z,79.71
2022-10-23T10:20:30.719Z,78.22
2022-10-23T10:21:30.669Z,78.12
2022-10-23T10:22:30.670Z,77.14
2022-10-23T10:23:30.650Z,77.48
2022-10-23T10:24:30.647Z,77.34
2022-10-23T10:25:30.626Z,79.34
2022-10-23T10:27:30.605Z,76.50
2022-10-23T10:28:30.601Z,76.80
2022-10-23T10:29:30.602Z,78.19
2022-10-23T10:30:30.570Z,80.25
2022-10-23T10:31:30.560Z,80.96
2022-10-23T10:32:30.611Z,80.62
2022-10-23T10:33:30.541Z,79.24
2022-10-23T10:34:30.527Z,80.01
2022-10-23T10:35:30.518Z,80.82
2022-10-23T10:36:30.512Z,82.64
2022-10-23T10:37:30.497Z,81.83
2022-10-23T10:38:30.514Z,81.29
2022-10-23T10:39:30.474Z,82.40
2022-10-23T10:40:30.463Z,80.38
2022-10-23T10:41:30.454Z,76.12
2022-10-23T10:42:30.439Z,76.29
2022-10-23T10:43:30.430Z,73.66
2022-10-23T10:44:30.450Z,74.57
2022-10-23T10:45:30.428Z,73.72
2022-10-23T10:46:30.411Z,73.83
2022-10-23T10:47:30.389Z,80.00
2022-10-23T10:48:30.375Z,81.82
2022-10-23T10:49:30.375Z,79.29
2022-10-23T10:50:30.411Z,80.30
2022-10-23T10:51:30.345Z,81.65
2022-10-23T10:52:30.333Z,78.42
2022-10-23T10:53:30.391Z,78.52
2022-10-23T10:54:30.418Z,75.99
2022-10-23T10:55:30.306Z,75.55
2022-10-23T10:56:30.348Z,72.04
2022-10-23T10:57:30.282Z,73.49
2022-10-23T10:58:30.268Z,72.58
2022-10-23T10:59:30.261Z,71.17
2022-10-23T11:00:30.258Z,72.08
2022-10-23T11:01:30.377Z,70.86
2022-10-23T11:02:30.266Z,70.89
2022-10-23T11:03:30.218Z,71.00
2022-10-23T11:04:30.214Z,70.59
2022-10-23T11:05:30.197Z,71.20
2022-10-23T11:06:30.182Z,71.60
2022-10-23T11:07:30.173Z,70.39
2022-10-23T11:08:30.193Z,71.80
2022-10-23T11:09:30.161Z,72.08
2022-10-23T11:10:30.138Z,70.29
2022-10-23T11:11:30.129Z,70.59
2022-10-23T11:12:30.119Z,72.38
2022-10-23T11:13:30.109Z,72.31
2022-10-23T11:14:30.153Z,73.39
2022-10-23T11:15:30.095Z,71.77
2022-10-23T11:16:30.074Z,71.57
2022-10-23T11:17:30.082Z,72.28
2022-10-23T11:18:30.051Z,71.37
2022-10-23T11:19:30.054Z,72.88
2022-10-23T11:20:30.077Z,71.47
2022-10-23T11:21:30.022Z,72.38
2022-10-23T11:22:30.020Z,73.46
2022-10-23T11:23:29.999Z,72.24
2022-10-23T11:24:29.986Z,71.84
2022-10-23T11:25:29.989Z,70.73
2022-10-23T11:26:29.967Z,71.64
2022-10-23T11:27:29.958Z,72.34
2022-10-23T11:28:29.942Z,71.94
2022-10-23T11:29:29.936Z,71.64
2022-10-23T11:30:29.923Z,72.64
2022-10-23T11:31:29.921Z,73.55
2022-10-23T11:32:29.945Z,73.75
2022-10-23T11:33:29.917Z,73.72
2022-10-23T11:34:29.876Z,72.51
2022-10-23T11:35:29.890Z,74.40
2022-10-23T11:36:29.865Z,70.32
2022-10-23T11:37:29.844Z,72.07
2022-10-23T11:38:29.848Z,69.55
2022-10-23T11:39:29.822Z,70.56
2022-10-23T11:40:29.817Z,70.15
2022-10-23T11:41:29.817Z,70.26
2022-10-23T11:42:29.800Z,70.49
2022-10-23T11:43:29.811Z,70.69
2022-10-23T11:44:29.765Z,73.62
2022-10-23T11:45:29.756Z,72.00
2022-10-23T11:46:29.744Z,71.94
2022-10-23T11:47:29.747Z,72.44
2022-10-23T11:48:29.721Z,72.04
2022-10-23T11:49:29.742Z,69.71
2022-10-23T11:50:29.700Z,70.42
2022-10-23T11:51:29.689Z,70.42
2022-10-23T11:52:29.678Z,70.83
2022-10-23T11:53:29.682Z,72.34
2022-10-23T11:54:29.658Z,73.55
2022-10-23T11:55:29.676Z,71.64
2022-10-23T11:56:29.639Z,69.82
2022-10-23T11:58:29.615Z,71.33
2022-10-23T11:59:29.619Z,71.73
2022-10-23T12:00:29.593Z,72.21
2022-10-23T12:01:29.688Z,73.32
2022-10-23T12:02:29.783Z,73.32
2022-10-23T12:03:29.556Z,72.11
2022-10-23T12:04:29.549Z,73.28
2022-10-23T12:05:29.571Z,71.37
2022-10-23T12:06:29.524Z,71.64
2022-10-23T12:07:29.541Z,70.02
2022-10-23T12:08:29.503Z,70.73
2022-10-23T12:09:29.490Z,71.33
2022-10-23T12:10:29.494Z,71.53
2022-10-23T12:11:29.466Z,68.61
2022-10-23T12:12:29.460Z,69.95
2022-10-23T12:13:29.474Z,70.32
2022-10-23T12:14:29.436Z,70.32
2022-10-23T12:15:29.434Z,71.20
2022-10-23T12:16:29.414Z,71.40
2022-10-23T12:17:29.402Z,70.89
2022-10-23T12:18:29.403Z,69.79
2022-10-23T12:19:29.408Z,69.68
2022-10-23T12:20:29.372Z,70.19
2022-10-23T12:21:29.387Z,70.19
2022-10-23T12:22:29.416Z,70.49
2022-10-23T12:23:29.335Z,69.85
2022-10-23T12:24:29.329Z,69.28
2022-10-23T12:25:29.346Z,68.24
2022-10-23T12:26:29.304Z,69.15
2022-10-23T12:27:29.310Z,69.35
2022-10-23T12:28:29.286Z,69.45
2022-10-23T12:29:29.270Z,69.05
2022-10-23T12:30:29.260Z,68.57
2022-10-23T12:31:29.298Z,69.25
2022-10-23T12:32:29.237Z,70.19
2022-10-23T12:33:29.238Z,69.59
2022-10-23T12:34:29.220Z,69.08
2022-10-23T12:35:29.215Z,68.88
2022-10-23T12:36:29.196Z,68.68
2022-10-23T12:37:29.237Z,69.08
2022-10-23T12:38:33.879Z,69.68
2022-10-23T12:39:30.172Z,69.21
2022-10-23T12:40:29.164Z,68.27
2022-10-23T12:41:29.162Z,68.01
2022-10-23T12:42:29.160Z,69.89
2022-10-23T12:43:29.142Z,69.08
2022-10-23T12:44:29.150Z,67.87
2022-10-23T12:45:29.091Z,68.37
2022-10-23T12:46:29.122Z,69.79
2022-10-23T12:47:29.122Z,69.48
2022-10-23T12:48:29.062Z,69.59
2022-10-23T12:49:29.162Z,69.28
2022-10-23T12:50:29.053Z,68.98
2022-10-23T12:51:29.025Z,70.49
2022-10-23T12:52:29.030Z,70.09
2022-10-23T12:53:29.029Z,69.79
2022-10-23T12:54:29.006Z,67.40
2022-10-23T12:55:30.934Z,67.30
2022-10-23T12:56:30.618Z,69.92